Zhetygen Airport

Jump to: basic info | weather | comments

Related pages: nearby airports | nearby navaids

Basic information (top)

Location: lon 43.733101, lat 77.119400, elev 1,638 ft / 499 m msl
Status: small_airport

Weather (top)

Current conditions for Almaty Airport 23nm (43km) S (rec'd 2015/01/29 12:00Z):

UAAA 291200Z 03002MPS 2700 BR FU SCT100 BKN200 M13/M17 Q1023 R05L/1///60 R05R/91//60 TEMPO 0600 BR FU

Airport forecast for Almaty Airport 23nm (43km) S (rec'd 2015/01/29 12:18Z):

TAF TAF UAAA 291100Z 2912/3012 16005MPS 0800 BR FU BKN010 BKN100 TXM12/3008Z TNM19/3001Z 
      TEMPO 2912/3006 0200 FZFG VV001 
      BECMG 3006/3007 02005MPS 2000

Latest comments (top)

No comments yet for Zhetygen Airport

More... (top)

See also NOTAMs and nearby airports and navaids, or visit the Zhetygen Airport page at the main OurAirports website..